sensor_id;sensor_type;location;lat;lon;timestamp;P1;durP1;ratioP1;P2;durP2;ratioP2
5977;SDS011;3015;51.390;12.256;2023-02-22T00:00:24;6.57;;;6.00;;
5977;SDS011;3015;51.390;12.256;2023-02-22T00:03:00;5.50;;;5.00;;
5977;SDS011;3015;51.390;12.256;2023-02-22T00:05:27;6.10;;;5.50;;
5977;SDS011;3015;51.390;12.256;2023-02-22T00:07:53;6.00;;;5.40;;
5977;SDS011;3015;51.390;12.256;2023-02-22T00:10:22;7.00;;;6.30;;
5977;SDS011;3015;51.390;12.256;2023-02-22T00:12:49;10.52;;;7.50;;
5977;SDS011;3015;51.390;12.256;2023-02-22T00:15:17;9.18;;;7.30;;
5977;SDS011;3015;51.390;12.256;2023-02-22T00:17:45;8.45;;;6.28;;
5977;SDS011;3015;51.390;12.256;2023-02-22T00:20:11;7.63;;;6.63;;
5977;SDS011;3015;51.390;12.256;2023-02-22T00:22:39;7.75;;;6.43;;
5977;SDS011;3015;51.390;12.256;2023-02-22T00:25:05;8.13;;;6.80;;
5977;SDS011;3015;51.390;12.256;2023-02-22T00:27:31;8.10;;;7.13;;
5977;SDS011;3015;51.390;12.256;2023-02-22T00:29:56;7.27;;;6.57;;
5977;SDS011;3015;51.390;12.256;2023-02-22T00:32:22;6.60;;;5.33;;
5977;SDS011;3015;51.390;12.256;2023-02-22T00:34:52;9.83;;;6.50;;
5977;SDS011;3015;51.390;12.256;2023-02-22T00:37:18;7.63;;;6.82;;
5977;SDS011;3015;51.390;12.256;2023-02-22T00:39:48;6.72;;;6.00;;
5977;SDS011;3015;51.390;12.256;2023-02-22T00:42:15;9.57;;;7.55;;
5977;SDS011;3015;51.390;12.256;2023-02-22T00:44:42;8.50;;;6.35;;
5977;SDS011;3015;51.390;12.256;2023-02-22T00:47:08;5.57;;;5.07;;
5977;SDS011;3015;51.390;12.256;2023-02-22T00:49:35;6.93;;;6.22;;
5977;SDS011;3015;51.390;12.256;2023-02-22T00:52:01;7.10;;;5.95;;
5977;SDS011;3015;51.390;12.256;2023-02-22T00:54:27;6.25;;;5.65;;
5977;SDS011;3015;51.390;12.256;2023-02-22T00:56:52;7.00;;;5.53;;
5977;SDS011;3015;51.390;12.256;2023-02-22T00:59:18;6.93;;;6.37;;
5977;SDS011;3015;51.390;12.256;2023-02-22T01:01:44;6.33;;;5.73;;
5977;SDS011;3015;51.390;12.256;2023-02-22T01:04:09;6.77;;;5.23;;
5977;SDS011;3015;51.390;12.256;2023-02-22T01:06:35;6.87;;;5.40;;
5977;SDS011;3015;51.390;12.256;2023-02-22T01:09:01;7.90;;;5.60;;
5977;SDS011;3015;51.390;12.256;2023-02-22T01:11:28;6.68;;;5.72;;
5977;SDS011;3015;51.390;12.256;2023-02-22T01:13:54;5.60;;;5.05;;
5977;SDS011;3015;51.390;12.256;2023-02-22T01:16:21;6.10;;;5.13;;
5977;SDS011;3015;51.390;12.256;2023-02-22T01:18:47;6.83;;;5.80;;
5977;SDS011;3015;51.390;12.256;2023-02-22T01:21:13;5.27;;;4.53;;
5977;SDS011;3015;51.390;12.256;2023-02-22T01:23:38;6.23;;;5.67;;
5977;SDS011;3015;51.390;12.256;2023-02-22T01:26:04;7.13;;;6.23;;
5977;SDS011;3015;51.390;12.256;2023-02-22T01:28:30;7.13;;;6.43;;
5977;SDS011;3015;51.390;12.256;2023-02-22T01:30:57;6.50;;;5.90;;
5977;SDS011;3015;51.390;12.256;2023-02-22T01:33:22;6.20;;;5.40;;
5977;SDS011;3015;51.390;12.256;2023-02-22T01:35:48;6.50;;;5.90;;
5977;SDS011;3015;51.390;12.256;2023-02-22T01:38:15;7.20;;;5.60;;
5977;SDS011;3015;51.390;12.256;2023-02-22T01:40:41;7.40;;;5.72;;
5977;SDS011;3015;51.390;12.256;2023-02-22T01:48:12;7.32;;;6.68;;
5977;SDS011;3015;51.390;12.256;2023-02-22T01:50:40;8.13;;;6.00;;
5977;SDS011;3015;51.390;12.256;2023-02-22T01:53:09;6.03;;;5.43;;
5977;SDS011;3015;51.390;12.256;2023-02-22T01:55:38;6.38;;;5.28;;
5977;SDS011;3015;51.390;12.256;2023-02-22T01:58:04;8.35;;;5.63;;
5977;SDS011;3015;51.390;12.256;2023-02-22T02:00:32;8.52;;;7.20;;
5977;SDS011;3015;51.390;12.256;2023-02-22T02:02:59;7.13;;;6.43;;
5977;SDS011;3015;51.390;12.256;2023-02-22T02:05:29;9.93;;;6.75;;
5977;SDS011;3015;51.390;12.256;2023-02-22T02:07:57;8.32;;;6.55;;
5977;SDS011;3015;51.390;12.256;2023-02-22T02:10:27;9.40;;;6.10;;
5977;SDS011;3015;51.390;12.256;2023-02-22T02:12:53;5.68;;;5.07;;
5977;SDS011;3015;51.390;12.256;2023-02-22T02:17:55;8.05;;;6.03;;
5977;SDS011;3015;51.390;12.256;2023-02-22T02:26:08;6.60;;;5.45;;
5977;SDS011;3015;51.390;12.256;2023-02-22T02:43:10;6.70;;;6.07;;
5977;SDS011;3015;51.390;12.256;2023-02-22T02:48:11;7.63;;;6.30;;
5977;SDS011;3015;51.390;12.256;2023-02-22T02:50:41;8.15;;;6.45;;
5977;SDS011;3015;51.390;12.256;2023-02-22T02:53:10;9.93;;;7.13;;
5977;SDS011;3015;51.390;12.256;2023-02-22T02:55:41;7.10;;;6.40;;
5977;SDS011;3015;51.390;12.256;2023-02-22T02:58:06;8.47;;;7.57;;
5977;SDS011;3015;51.390;12.256;2023-02-22T03:00:34;6.68;;;5.85;;
5977;SDS011;3015;51.390;12.256;2023-02-22T03:05:33;11.37;;;8.40;;
5977;SDS011;3015;51.390;12.256;2023-02-22T03:11:09;10.88;;;8.30;;
5977;SDS011;3015;51.390;12.256;2023-02-22T03:19:43;9.98;;;8.43;;
5977;SDS011;3015;51.390;12.256;2023-02-22T03:24:38;10.80;;;8.68;;
5977;SDS011;3015;51.390;12.256;2023-02-22T03:29:47;10.52;;;7.75;;
5977;SDS011;3015;51.390;12.256;2023-02-22T03:32:16;13.20;;;9.15;;
5977;SDS011;3015;51.390;12.256;2023-02-22T03:35:08;9.88;;;8.05;;
5977;SDS011;3015;51.390;12.256;2023-02-22T03:37:37;13.85;;;8.60;;
5977;SDS011;3015;51.390;12.256;2023-02-22T03:40:07;12.85;;;8.88;;
5977;SDS011;3015;51.390;12.256;2023-02-22T03:42:44;10.98;;;7.55;;
5977;SDS011;3015;51.390;12.256;2023-02-22T03:45:13;13.65;;;9.55;;
5977;SDS011;3015;51.390;12.256;2023-02-22T03:47:45;12.07;;;8.77;;
5977;SDS011;3015;51.390;12.256;2023-02-22T03:50:17;12.57;;;9.32;;
5977;SDS011;3015;51.390;12.256;2023-02-22T03:52:46;14.80;;;9.70;;
5977;SDS011;3015;51.390;12.256;2023-02-22T03:55:13;14.75;;;9.65;;
5977;SDS011;3015;51.390;12.256;2023-02-22T03:57:42;15.25;;;10.13;;
5977;SDS011;3015;51.390;12.256;2023-02-22T04:00:13;12.68;;;9.35;;
5977;SDS011;3015;51.390;12.256;2023-02-22T04:02:42;11.20;;;9.15;;
5977;SDS011;3015;51.390;12.256;2023-02-22T04:05:08;12.30;;;9.48;;
5977;SDS011;3015;51.390;12.256;2023-02-22T04:07:34;19.47;;;11.60;;
5977;SDS011;3015;51.390;12.256;2023-02-22T04:10:00;13.83;;;11.50;;
5977;SDS011;3015;51.390;12.256;2023-02-22T04:12:27;15.50;;;11.63;;
5977;SDS011;3015;51.390;12.256;2023-02-22T04:14:52;12.90;;;10.00;;
5977;SDS011;3015;51.390;12.256;2023-02-22T04:17:18;16.13;;;11.73;;
5977;SDS011;3015;51.390;12.256;2023-02-22T04:19:44;12.83;;;10.30;;
5977;SDS011;3015;51.390;12.256;2023-02-22T04:22:10;19.80;;;10.67;;
5977;SDS011;3015;51.390;12.256;2023-02-22T04:24:36;13.88;;;9.30;;
5977;SDS011;3015;51.390;12.256;2023-02-22T04:27:01;15.53;;;10.00;;
5977;SDS011;3015;51.390;12.256;2023-02-22T04:29:27;13.80;;;9.87;;
5977;SDS011;3015;51.390;12.256;2023-02-22T04:31:54;15.68;;;10.60;;
5977;SDS011;3015;51.390;12.256;2023-02-22T04:34:20;12.77;;;10.23;;
5977;SDS011;3015;51.390;12.256;2023-02-22T04:36:45;15.87;;;10.93;;
5977;SDS011;3015;51.390;12.256;2023-02-22T04:39:11;13.63;;;11.40;;
5977;SDS011;3015;51.390;12.256;2023-02-22T04:41:37;15.23;;;9.53;;
5977;SDS011;3015;51.390;12.256;2023-02-22T04:44:03;12.57;;;10.03;;
5977;SDS011;3015;51.390;12.256;2023-02-22T04:46:28;12.83;;;9.97;;
5977;SDS011;3015;51.390;12.256;2023-02-22T04:48:55;14.95;;;10.95;;
5977;SDS011;3015;51.390;12.256;2023-02-22T04:51:21;17.00;;;11.48;;
5977;SDS011;3015;51.390;12.256;2023-02-22T04:53:47;14.68;;;10.27;;
5977;SDS011;3015;51.390;12.256;2023-02-22T04:56:15;16.03;;;10.60;;
5977;SDS011;3015;51.390;12.256;2023-02-22T04:58:41;14.77;;;9.70;;
5977;SDS011;3015;51.390;12.256;2023-02-22T05:01:07;12.27;;;9.97;;
5977;SDS011;3015;51.390;12.256;2023-02-22T05:03:33;10.73;;;9.20;;
5977;SDS011;3015;51.390;12.256;2023-02-22T05:06:01;15.77;;;10.20;;
5977;SDS011;3015;51.390;12.256;2023-02-22T05:08:26;14.50;;;11.90;;
5977;SDS011;3015;51.390;12.256;2023-02-22T05:10:53;12.55;;;10.38;;
5977;SDS011;3015;51.390;12.256;2023-02-22T05:13:19;13.10;;;10.47;;
5977;SDS011;3015;51.390;12.256;2023-02-22T05:15:44;15.70;;;10.60;;
5977;SDS011;3015;51.390;12.256;2023-02-22T05:18:10;10.80;;;9.33;;
5977;SDS011;3015;51.390;12.256;2023-02-22T05:20:36;12.97;;;9.77;;
5977;SDS011;3015;51.390;12.256;2023-02-22T05:23:01;11.77;;;10.43;;
5977;SDS011;3015;51.390;12.256;2023-02-22T05:25:29;14.85;;;9.70;;
5977;SDS011;3015;51.390;12.256;2023-02-22T05:27:56;12.65;;;9.70;;
5977;SDS011;3015;51.390;12.256;2023-02-22T05:30:27;14.10;;;10.57;;
5977;SDS011;3015;51.390;12.256;2023-02-22T05:32:55;14.70;;;11.13;;
5977;SDS011;3015;51.390;12.256;2023-02-22T05:35:22;14.27;;;9.97;;
5977;SDS011;3015;51.390;12.256;2023-02-22T05:37:47;16.60;;;10.00;;
5977;SDS011;3015;51.390;12.256;2023-02-22T05:40:15;11.50;;;9.30;;
5977;SDS011;3015;51.390;12.256;2023-02-22T05:42:42;13.48;;;10.23;;
5977;SDS011;3015;51.390;12.256;2023-02-22T05:45:10;12.17;;;9.93;;
5977;SDS011;3015;51.390;12.256;2023-02-22T05:47:37;15.07;;;9.93;;
5977;SDS011;3015;51.390;12.256;2023-02-22T05:50:02;16.43;;;12.17;;
5977;SDS011;3015;51.390;12.256;2023-02-22T05:52:28;16.07;;;11.90;;
5977;SDS011;3015;51.390;12.256;2023-02-22T05:54:54;14.30;;;9.67;;
5977;SDS011;3015;51.390;12.256;2023-02-22T05:57:19;16.00;;;11.67;;
5977;SDS011;3015;51.390;12.256;2023-02-22T05:59:45;15.30;;;10.40;;
5977;SDS011;3015;51.390;12.256;2023-02-22T06:02:10;11.93;;;10.73;;
5977;SDS011;3015;51.390;12.256;2023-02-22T06:04:36;13.50;;;11.10;;
5977;SDS011;3015;51.390;12.256;2023-02-22T06:07:02;14.10;;;10.33;;
5977;SDS011;3015;51.390;12.256;2023-02-22T06:09:27;15.47;;;10.90;;
5977;SDS011;3015;51.390;12.256;2023-02-22T06:11:53;15.43;;;10.67;;
5977;SDS011;3015;51.390;12.256;2023-02-22T06:14:19;11.87;;;10.13;;
5977;SDS011;3015;51.390;12.256;2023-02-22T06:16:50;17.10;;;12.73;;
5977;SDS011;3015;51.390;12.256;2023-02-22T06:19:17;15.07;;;11.65;;
5977;SDS011;3015;51.390;12.256;2023-02-22T06:21:49;17.37;;;11.47;;
5977;SDS011;3015;51.390;12.256;2023-02-22T06:24:16;18.42;;;12.20;;
5977;SDS011;3015;51.390;12.256;2023-02-22T06:26:42;15.75;;;12.50;;
5977;SDS011;3015;51.390;12.256;2023-02-22T06:29:07;17.47;;;11.27;;
5977;SDS011;3015;51.390;12.256;2023-02-22T06:31:33;16.50;;;10.97;;
5977;SDS011;3015;51.390;12.256;2023-02-22T06:33:59;22.93;;;13.57;;
5977;SDS011;3015;51.390;12.256;2023-02-22T06:36:25;18.53;;;13.13;;
5977;SDS011;3015;51.390;12.256;2023-02-22T06:38:50;19.97;;;12.60;;
5977;SDS011;3015;51.390;12.256;2023-02-22T06:41:16;17.17;;;12.13;;
5977;SDS011;3015;51.390;12.256;2023-02-22T06:43:41;18.70;;;13.13;;
5977;SDS011;3015;51.390;12.256;2023-02-22T06:46:10;18.00;;;14.00;;
5977;SDS011;3015;51.390;12.256;2023-02-22T06:48:37;13.52;;;11.48;;
5977;SDS011;3015;51.390;12.256;2023-02-22T06:51:04;21.15;;;12.35;;
5977;SDS011;3015;51.390;12.256;2023-02-22T06:53:33;18.30;;;11.90;;
5977;SDS011;3015;51.390;12.256;2023-02-22T06:55:59;17.38;;;12.63;;
5977;SDS011;3015;51.390;12.256;2023-02-22T06:58:26;17.65;;;13.05;;
5977;SDS011;3015;51.390;12.256;2023-02-22T07:00:52;17.67;;;12.07;;
5977;SDS011;3015;51.390;12.256;2023-02-22T07:03:17;17.37;;;11.87;;
5977;SDS011;3015;51.390;12.256;2023-02-22T07:05:43;20.07;;;13.70;;
5977;SDS011;3015;51.390;12.256;2023-02-22T07:08:10;21.13;;;13.50;;
5977;SDS011;3015;51.390;12.256;2023-02-22T07:10:36;17.23;;;12.50;;
5977;SDS011;3015;51.390;12.256;2023-02-22T07:13:03;16.35;;;12.00;;
5977;SDS011;3015;51.390;12.256;2023-02-22T07:15:32;17.95;;;13.75;;
5977;SDS011;3015;51.390;12.256;2023-02-22T07:17:58;18.55;;;12.48;;
5977;SDS011;3015;51.390;12.256;2023-02-22T07:20:25;16.83;;;13.02;;
5977;SDS011;3015;51.390;12.256;2023-02-22T07:22:52;17.77;;;11.50;;
5977;SDS011;3015;51.390;12.256;2023-02-22T07:25:18;16.30;;;12.63;;
5977;SDS011;3015;51.390;12.256;2023-02-22T07:27:44;22.65;;;14.65;;
5977;SDS011;3015;51.390;12.256;2023-02-22T07:30:16;18.75;;;11.35;;
5977;SDS011;3015;51.390;12.256;2023-02-22T07:32:49;16.80;;;12.95;;
5977;SDS011;3015;51.390;12.256;2023-02-22T07:35:17;16.65;;;11.23;;
5977;SDS011;3015;51.390;12.256;2023-02-22T07:37:45;19.75;;;13.50;;
5977;SDS011;3015;51.390;12.256;2023-02-22T07:40:12;20.05;;;13.70;;
5977;SDS011;3015;51.390;12.256;2023-02-22T07:42:54;19.98;;;13.43;;
5977;SDS011;3015;51.390;12.256;2023-02-22T07:45:24;16.52;;;13.00;;
5977;SDS011;3015;51.390;12.256;2023-02-22T07:47:51;17.15;;;12.98;;
5977;SDS011;3015;51.390;12.256;2023-02-22T07:50:17;20.10;;;13.17;;
5977;SDS011;3015;51.390;12.256;2023-02-22T07:52:48;19.55;;;14.35;;
5977;SDS011;3015;51.390;12.256;2023-02-22T07:55:16;15.27;;;12.90;;
5977;SDS011;3015;51.390;12.256;2023-02-22T07:57:47;18.98;;;14.25;;
5977;SDS011;3015;51.390;12.256;2023-02-22T08:00:15;19.88;;;13.40;;
5977;SDS011;3015;51.390;12.256;2023-02-22T08:02:45;16.63;;;14.20;;
5977;SDS011;3015;51.390;12.256;2023-02-22T08:05:12;18.00;;;13.93;;
5977;SDS011;3015;51.390;12.256;2023-02-22T08:07:38;18.50;;;13.75;;
5977;SDS011;3015;51.390;12.256;2023-02-22T08:10:05;19.60;;;15.83;;
5977;SDS011;3015;51.390;12.256;2023-02-22T08:12:35;18.60;;;14.48;;
5977;SDS011;3015;51.390;12.256;2023-02-22T08:15:05;18.77;;;12.50;;
5977;SDS011;3015;51.390;12.256;2023-02-22T08:17:33;16.88;;;13.18;;
5977;SDS011;3015;51.390;12.256;2023-02-22T08:19:59;20.87;;;14.07;;
5977;SDS011;3015;51.390;12.256;2023-02-22T08:22:24;16.30;;;14.23;;
5977;SDS011;3015;51.390;12.256;2023-02-22T08:24:53;19.23;;;13.98;;
5977;SDS011;3015;51.390;12.256;2023-02-22T08:27:28;18.53;;;12.40;;
5977;SDS011;3015;51.390;12.256;2023-02-22T08:29:54;17.48;;;13.52;;
5977;SDS011;3015;51.390;12.256;2023-02-22T08:32:21;15.77;;;11.48;;
5977;SDS011;3015;51.390;12.256;2023-02-22T08:34:47;16.60;;;13.02;;
5977;SDS011;3015;51.390;12.256;2023-02-22T08:37:16;15.60;;;12.73;;
5977;SDS011;3015;51.390;12.256;2023-02-22T08:39:43;13.98;;;11.77;;
5977;SDS011;3015;51.390;12.256;2023-02-22T08:42:09;16.63;;;12.55;;
5977;SDS011;3015;51.390;12.256;2023-02-22T08:44:35;14.60;;;13.10;;
5977;SDS011;3015;51.390;12.256;2023-02-22T08:47:01;17.42;;;14.20;;
5977;SDS011;3015;51.390;12.256;2023-02-22T08:49:27;15.98;;;13.13;;
5977;SDS011;3015;51.390;12.256;2023-02-22T08:51:53;14.57;;;11.70;;
5977;SDS011;3015;51.390;12.256;2023-02-22T08:54:19;14.87;;;12.20;;
5977;SDS011;3015;51.390;12.256;2023-02-22T08:56:46;16.63;;;13.02;;
5977;SDS011;3015;51.390;12.256;2023-02-22T08:59:12;17.10;;;12.32;;
5977;SDS011;3015;51.390;12.256;2023-02-22T09:01:38;18.40;;;13.50;;
5977;SDS011;3015;51.390;12.256;2023-02-22T09:04:04;13.87;;;12.37;;
5977;SDS011;3015;51.390;12.256;2023-02-22T09:06:29;17.50;;;14.00;;
5977;SDS011;3015;51.390;12.256;2023-02-22T09:08:55;17.80;;;14.43;;
5977;SDS011;3015;51.390;12.256;2023-02-22T09:11:20;18.60;;;13.07;;
5977;SDS011;3015;51.390;12.256;2023-02-22T09:13:46;18.27;;;13.27;;
5977;SDS011;3015;51.390;12.256;2023-02-22T09:16:12;14.37;;;12.77;;
5977;SDS011;3015;51.390;12.256;2023-02-22T09:18:37;20.40;;;14.07;;
5977;SDS011;3015;51.390;12.256;2023-02-22T09:21:03;16.57;;;12.40;;
5977;SDS011;3015;51.390;12.256;2023-02-22T09:23:30;16.30;;;13.02;;
5977;SDS011;3015;51.390;12.256;2023-02-22T09:25:56;17.87;;;13.00;;
5977;SDS011;3015;51.390;12.256;2023-02-22T09:28:24;17.25;;;13.68;;
5977;SDS011;3015;51.390;12.256;2023-02-22T09:30:50;16.70;;;12.90;;
5977;SDS011;3015;51.390;12.256;2023-02-22T09:33:16;16.23;;;12.83;;
5977;SDS011;3015;51.390;12.256;2023-02-22T09:35:44;20.35;;;13.70;;
5977;SDS011;3015;51.390;12.256;2023-02-22T09:38:13;15.30;;;12.20;;
5977;SDS011;3015;51.390;12.256;2023-02-22T09:40:40;17.17;;;11.97;;
5977;SDS011;3015;51.390;12.256;2023-02-22T09:48:55;17.17;;;14.10;;
5977;SDS011;3015;51.390;12.256;2023-02-22T09:51:22;18.10;;;14.03;;
5977;SDS011;3015;51.390;12.256;2023-02-22T09:53:54;18.00;;;13.10;;
5977;SDS011;3015;51.390;12.256;2023-02-22T09:56:24;15.88;;;12.90;;
5977;SDS011;3015;51.390;12.256;2023-02-22T09:58:53;17.95;;;13.10;;
5977;SDS011;3015;51.390;12.256;2023-02-22T10:01:34;18.40;;;13.00;;
5977;SDS011;3015;51.390;12.256;2023-02-22T10:09:26;18.03;;;13.90;;
5977;SDS011;3015;51.390;12.256;2023-02-22T10:11:58;15.37;;;12.33;;
5977;SDS011;3015;51.390;12.256;2023-02-22T10:17:07;13.90;;;11.50;;
5977;SDS011;3015;51.390;12.256;2023-02-22T10:25:13;17.25;;;12.38;;
5977;SDS011;3015;51.390;12.256;2023-02-22T10:30:37;16.27;;;12.23;;
5977;SDS011;3015;51.390;12.256;2023-02-22T10:35:43;16.30;;;11.83;;
5977;SDS011;3015;51.390;12.256;2023-02-22T10:40:51;13.80;;;11.60;;
5977;SDS011;3015;51.390;12.256;2023-02-22T10:43:33;14.97;;;11.40;;
5977;SDS011;3015;51.390;12.256;2023-02-22T10:46:01;18.40;;;12.20;;
5977;SDS011;3015;51.390;12.256;2023-02-22T10:48:30;14.90;;;11.23;;
5977;SDS011;3015;51.390;12.256;2023-02-22T10:51:00;15.93;;;10.87;;
5977;SDS011;3015;51.390;12.256;2023-02-22T10:53:27;14.83;;;10.10;;
5977;SDS011;3015;51.390;12.256;2023-02-22T10:58:51;12.00;;;8.87;;
5977;SDS011;3015;51.390;12.256;2023-02-22T11:01:26;10.23;;;9.20;;
5977;SDS011;3015;51.390;12.256;2023-02-22T11:06:24;11.87;;;9.70;;
5977;SDS011;3015;51.390;12.256;2023-02-22T11:08:51;12.87;;;11.23;;
5977;SDS011;3015;51.390;12.256;2023-02-22T11:11:29;14.50;;;9.90;;
5977;SDS011;3015;51.390;12.256;2023-02-22T11:13:55;12.40;;;9.87;;
5977;SDS011;3015;51.390;12.256;2023-02-22T11:16:30;12.37;;;10.23;;
5977;SDS011;3015;51.390;12.256;2023-02-22T11:19:00;12.37;;;10.40;;
5977;SDS011;3015;51.390;12.256;2023-02-22T11:21:30;15.30;;;10.90;;
5977;SDS011;3015;51.390;12.256;2023-02-22T11:24:04;15.17;;;10.27;;
5977;SDS011;3015;51.390;12.256;2023-02-22T11:26:40;12.70;;;11.30;;
5977;SDS011;3015;51.390;12.256;2023-02-22T11:29:24;12.70;;;10.50;;
5977;SDS011;3015;51.390;12.256;2023-02-22T11:31:52;11.00;;;9.67;;
5977;SDS011;3015;51.390;12.256;2023-02-22T11:39:43;15.40;;;9.87;;
5977;SDS011;3015;51.390;12.256;2023-02-22T11:42:16;12.67;;;10.23;;
5977;SDS011;3015;51.390;12.256;2023-02-22T11:47:57;12.27;;;9.60;;
5977;SDS011;3015;51.390;12.256;2023-02-22T12:01:22;10.90;;;9.77;;
5977;SDS011;3015;51.390;12.256;2023-02-22T12:13:03;10.87;;;8.87;;
5977;SDS011;3015;51.390;12.256;2023-02-22T12:15:55;11.00;;;8.17;;
5977;SDS011;3015;51.390;12.256;2023-02-22T12:18:32;9.00;;;8.00;;
5977;SDS011;3015;51.390;12.256;2023-02-22T12:21:05;10.80;;;9.10;;
5977;SDS011;3015;51.390;12.256;2023-02-22T12:23:40;9.50;;;8.37;;
5977;SDS011;3015;51.390;12.256;2023-02-22T12:28:45;10.27;;;9.17;;
5977;SDS011;3015;51.390;12.256;2023-02-22T12:33:45;10.57;;;8.57;;
5977;SDS011;3015;51.390;12.256;2023-02-22T12:36:14;10.93;;;9.30;;
5977;SDS011;3015;51.390;12.256;2023-02-22T12:38:45;10.20;;;9.30;;
5977;SDS011;3015;51.390;12.256;2023-02-22T12:41:22;9.97;;;8.97;;
5977;SDS011;3015;51.390;12.256;2023-02-22T12:44:05;11.73;;;9.80;;
5977;SDS011;3015;51.390;12.256;2023-02-22T12:46:51;11.57;;;8.73;;
5977;SDS011;3015;51.390;12.256;2023-02-22T12:52:12;9.80;;;8.80;;
5977;SDS011;3015;51.390;12.256;2023-02-22T12:55:19;9.93;;;8.80;;
5977;SDS011;3015;51.390;12.256;2023-02-22T12:58:08;9.80;;;8.80;;
5977;SDS011;3015;51.390;12.256;2023-02-22T13:01:04;9.93;;;8.20;;
5977;SDS011;3015;51.390;12.256;2023-02-22T13:03:39;8.73;;;7.83;;
5977;SDS011;3015;51.390;12.256;2023-02-22T13:08:47;11.00;;;8.73;;
5977;SDS011;3015;51.390;12.256;2023-02-22T13:12:03;10.17;;;9.17;;
5977;SDS011;3015;51.390;12.256;2023-02-22T13:14:30;12.50;;;9.00;;
5977;SDS011;3015;51.390;12.256;2023-02-22T13:17:13;10.10;;;8.00;;
5977;SDS011;3015;51.390;12.256;2023-02-22T13:22:32;8.87;;;8.07;;
5977;SDS011;3015;51.390;12.256;2023-02-22T13:25:13;8.30;;;7.50;;
5977;SDS011;3015;51.390;12.256;2023-02-22T13:28:00;8.77;;;7.87;;
5977;SDS011;3015;51.390;12.256;2023-02-22T13:30:48;7.80;;;7.00;;
5977;SDS011;3015;51.390;12.256;2023-02-22T13:33:32;9.00;;;8.10;;
5977;SDS011;3015;51.390;12.256;2023-02-22T13:47:13;10.23;;;9.23;;
5977;SDS011;3015;51.390;12.256;2023-02-22T13:53:18;9.47;;;8.47;;
5977;SDS011;3015;51.390;12.256;2023-02-22T13:55:53;10.30;;;8.70;;
5977;SDS011;3015;51.390;12.256;2023-02-22T13:58:22;9.30;;;8.40;;
5977;SDS011;3015;51.390;12.256;2023-02-22T14:00:50;8.87;;;7.70;;
5977;SDS011;3015;51.390;12.256;2023-02-22T14:03:30;9.50;;;8.47;;
5977;SDS011;3015;51.390;12.256;2023-02-22T14:06:00;8.23;;;7.43;;
5977;SDS011;3015;51.390;12.256;2023-02-22T14:13:24;9.43;;;8.37;;
5977;SDS011;3015;51.390;12.256;2023-02-22T14:18:36;9.60;;;7.80;;
5977;SDS011;3015;51.390;12.256;2023-02-22T14:21:20;10.70;;;9.57;;
5977;SDS011;3015;51.390;12.256;2023-02-22T14:23:50;9.63;;;8.07;;
5977;SDS011;3015;51.390;12.256;2023-02-22T14:31:24;8.50;;;7.60;;
5977;SDS011;3015;51.390;12.256;2023-02-22T14:39:41;8.43;;;7.63;;
5977;SDS011;3015;51.390;12.256;2023-02-22T14:47:23;9.40;;;7.40;;
5977;SDS011;3015;51.390;12.256;2023-02-22T14:49:59;8.90;;;8.00;;
5977;SDS011;3015;51.390;12.256;2023-02-22T14:52:33;9.47;;;8.50;;
5977;SDS011;3015;51.390;12.256;2023-02-22T14:55:21;7.83;;;7.07;;
5977;SDS011;3015;51.390;12.256;2023-02-22T14:58:04;8.80;;;8.00;;
5977;SDS011;3015;51.390;12.256;2023-02-22T15:03:01;8.00;;;6.93;;
5977;SDS011;3015;51.390;12.256;2023-02-22T15:05:29;7.57;;;6.77;;
5977;SDS011;3015;51.390;12.256;2023-02-22T15:08:03;10.53;;;8.43;;
5977;SDS011;3015;51.390;12.256;2023-02-22T15:10:40;9.60;;;8.70;;
5977;SDS011;3015;51.390;12.256;2023-02-22T15:15:44;8.67;;;7.80;;
5977;SDS011;3015;51.390;12.256;2023-02-22T15:18:54;10.13;;;6.73;;
5977;SDS011;3015;51.390;12.256;2023-02-22T15:21:43;8.80;;;7.93;;
5977;SDS011;3015;51.390;12.256;2023-02-22T15:24:01;8.00;;;7.20;;
5977;SDS011;3015;51.390;12.256;2023-02-22T15:29:09;7.70;;;7.00;;
5977;SDS011;3015;51.390;12.256;2023-02-22T15:31:37;7.77;;;7.17;;
5977;SDS011;3015;51.390;12.256;2023-02-22T15:36:51;7.30;;;6.00;;
5977;SDS011;3015;51.390;12.256;2023-02-22T15:39:25;9.00;;;8.00;;
5977;SDS011;3015;51.390;12.256;2023-02-22T15:42:07;9.27;;;8.33;;
5977;SDS011;3015;51.390;12.256;2023-02-22T15:44:43;7.77;;;7.07;;
5977;SDS011;3015;51.390;12.256;2023-02-22T15:47:32;9.40;;;8.23;;
5977;SDS011;3015;51.390;12.256;2023-02-22T15:50:16;7.47;;;6.77;;
5977;SDS011;3015;51.390;12.256;2023-02-22T15:55:42;7.30;;;6.43;;
5977;SDS011;3015;51.390;12.256;2023-02-22T16:00:37;6.33;;;5.70;;
5977;SDS011;3015;51.390;12.256;2023-02-22T16:03:16;8.03;;;7.23;;
5977;SDS011;3015;51.390;12.256;2023-02-22T16:05:53;6.80;;;6.10;;
5977;SDS011;3015;51.390;12.256;2023-02-22T16:11:08;7.90;;;7.10;;
5977;SDS011;3015;51.390;12.256;2023-02-22T16:13:39;7.37;;;6.60;;
5977;SDS011;3015;51.390;12.256;2023-02-22T16:18:45;16.88;;;7.75;;
5977;SDS011;3015;51.390;12.256;2023-02-22T16:21:13;8.70;;;6.70;;
5977;SDS011;3015;51.390;12.256;2023-02-22T16:23:52;7.30;;;6.60;;
5977;SDS011;3015;51.390;12.256;2023-02-22T16:28:59;7.87;;;6.33;;
5977;SDS011;3015;51.390;12.256;2023-02-22T16:31:32;5.67;;;5.17;;
5977;SDS011;3015;51.390;12.256;2023-02-22T16:34:03;8.47;;;6.60;;
5977;SDS011;3015;51.390;12.256;2023-02-22T16:36:43;8.77;;;5.60;;
5977;SDS011;3015;51.390;12.256;2023-02-22T16:39:12;7.07;;;6.45;;
5977;SDS011;3015;51.390;12.256;2023-02-22T16:41:46;7.17;;;6.33;;
5977;SDS011;3015;51.390;12.256;2023-02-22T16:44:12;9.93;;;7.07;;
5977;SDS011;3015;51.390;12.256;2023-02-22T16:46:39;8.27;;;5.20;;
5977;SDS011;3015;51.390;12.256;2023-02-22T16:49:06;6.90;;;6.22;;
5977;SDS011;3015;51.390;12.256;2023-02-22T16:51:34;6.35;;;5.72;;
5977;SDS011;3015;51.390;12.256;2023-02-22T16:54:03;6.65;;;5.97;;
5977;SDS011;3015;51.390;12.256;2023-02-22T16:56:30;8.90;;;6.57;;
5977;SDS011;3015;51.390;12.256;2023-02-22T16:58:59;6.63;;;5.87;;
5977;SDS011;3015;51.390;12.256;2023-02-22T17:01:25;6.60;;;6.00;;
5977;SDS011;3015;51.390;12.256;2023-02-22T17:03:51;6.30;;;5.67;;
5977;SDS011;3015;51.390;12.256;2023-02-22T17:06:18;6.47;;;5.88;;
5977;SDS011;3015;51.390;12.256;2023-02-22T17:08:44;6.50;;;5.90;;
5977;SDS011;3015;51.390;12.256;2023-02-22T17:11:11;6.45;;;5.38;;
5977;SDS011;3015;51.390;12.256;2023-02-22T17:13:37;6.40;;;5.50;;
5977;SDS011;3015;51.390;12.256;2023-02-22T17:16:04;6.65;;;5.78;;
5977;SDS011;3015;51.390;12.256;2023-02-22T17:18:31;6.93;;;6.25;;
5977;SDS011;3015;51.390;12.256;2023-02-22T17:20:58;7.80;;;6.30;;
5977;SDS011;3015;51.390;12.256;2023-02-22T17:23:24;7.75;;;6.50;;
5977;SDS011;3015;51.390;12.256;2023-02-22T17:25:54;6.95;;;6.35;;
5977;SDS011;3015;51.390;12.256;2023-02-22T17:28:21;7.90;;;7.10;;
5977;SDS011;3015;51.390;12.256;2023-02-22T17:30:48;7.72;;;6.93;;
5977;SDS011;3015;51.390;12.256;2023-02-22T17:33:16;10.40;;;6.70;;
5977;SDS011;3015;51.390;12.256;2023-02-22T17:35:42;7.55;;;6.85;;
5977;SDS011;3015;51.390;12.256;2023-02-22T17:38:09;10.30;;;7.25;;
5977;SDS011;3015;51.390;12.256;2023-02-22T17:40:36;10.68;;;8.43;;
5977;SDS011;3015;51.390;12.256;2023-02-22T17:43:03;9.20;;;7.95;;
5977;SDS011;3015;51.390;12.256;2023-02-22T17:45:31;10.55;;;8.02;;
5977;SDS011;3015;51.390;12.256;2023-02-22T17:47:57;9.87;;;8.77;;
5977;SDS011;3015;51.390;12.256;2023-02-22T17:50:24;9.27;;;8.20;;
5977;SDS011;3015;51.390;12.256;2023-02-22T17:52:50;8.93;;;8.02;;
5977;SDS011;3015;51.390;12.256;2023-02-22T17:55:17;9.50;;;8.05;;
5977;SDS011;3015;51.390;12.256;2023-02-22T17:57:43;14.35;;;9.82;;
5977;SDS011;3015;51.390;12.256;2023-02-22T18:00:11;12.32;;;8.90;;
5977;SDS011;3015;51.390;12.256;2023-02-22T18:02:40;12.00;;;9.27;;
5977;SDS011;3015;51.390;12.256;2023-02-22T18:05:07;10.10;;;9.10;;